createdAt,value
2017-08-23T00:01:12.082Z,13.03
2017-08-23T00:03:39.656Z,12.53
2017-08-23T00:06:07.255Z,11.80
2017-08-23T00:08:34.847Z,11.77
2017-08-23T00:11:02.451Z,10.47
2017-08-23T00:13:30.078Z,10.93
2017-08-23T00:15:57.685Z,10.77
2017-08-23T00:18:25.273Z,10.33
2017-08-23T00:20:52.897Z,11.77
2017-08-23T00:23:20.482Z,10.97
2017-08-23T00:25:48.077Z,10.80
2017-08-23T00:28:15.664Z,9.83
2017-08-23T00:30:43.266Z,10.60
2017-08-23T00:33:10.903Z,10.90
2017-08-23T00:35:38.474Z,10.80
2017-08-23T00:38:06.073Z,9.67
2017-08-23T00:40:33.664Z,10.13
2017-08-23T00:43:01.272Z,10.87
2017-08-23T00:45:28.853Z,11.33
2017-08-23T00:47:56.443Z,10.77
2017-08-23T00:50:24.030Z,11.00
2017-08-23T00:52:51.616Z,11.53
2017-08-23T00:55:19.203Z,11.30
2017-08-23T00:57:46.790Z,10.83
2017-08-23T01:00:14.479Z,12.00
2017-08-23T01:02:42.080Z,10.60
2017-08-23T01:05:09.726Z,10.70
2017-08-23T01:07:37.307Z,11.30
2017-08-23T01:10:04.898Z,11.60
2017-08-23T01:12:32.478Z,12.50
2017-08-23T01:15:00.066Z,11.90
2017-08-23T01:17:27.642Z,10.47
2017-08-23T01:19:55.230Z,9.90
2017-08-23T01:22:22.816Z,10.47
2017-08-23T01:24:50.571Z,10.47
2017-08-23T01:27:18.187Z,10.10
2017-08-23T01:29:45.779Z,10.60
2017-08-23T01:32:13.550Z,11.90
2017-08-23T01:34:41.169Z,10.00
2017-08-23T01:37:08.764Z,11.20
2017-08-23T01:39:36.369Z,10.30
2017-08-23T01:42:03.960Z,12.57
2017-08-23T01:44:31.547Z,12.63
2017-08-23T01:46:59.226Z,12.30
2017-08-23T01:49:26.815Z,10.97
2017-08-23T01:51:54.414Z,13.97
2017-08-23T01:54:22.003Z,12.30
2017-08-23T01:56:49.586Z,13.60
2017-08-23T01:59:17.273Z,12.63
2017-08-23T02:01:44.837Z,13.10
2017-08-23T02:04:12.425Z,12.37
2017-08-23T02:06:40.014Z,12.50
2017-08-23T02:09:07.679Z,11.83
2017-08-23T02:11:35.262Z,11.40
2017-08-23T02:14:02.830Z,12.07
2017-08-23T02:16:30.418Z,12.77
2017-08-23T02:18:57.999Z,11.30
2017-08-23T02:21:25.604Z,12.47
2017-08-23T02:23:53.195Z,11.23
2017-08-23T02:26:20.779Z,11.17
2017-08-23T02:28:48.482Z,10.67
2017-08-23T02:31:16.059Z,11.30
2017-08-23T02:33:43.651Z,11.37
2017-08-23T02:36:11.219Z,11.60
2017-08-23T02:38:38.841Z,11.33
2017-08-23T02:41:06.419Z,11.80
2017-08-23T02:43:34.068Z,11.63
2017-08-23T02:46:01.647Z,11.43
2017-08-23T02:48:29.241Z,9.77
2017-08-23T02:50:56.879Z,10.67
2017-08-23T02:53:24.460Z,10.17
2017-08-23T02:55:52.014Z,10.83
2017-08-23T02:58:19.607Z,10.00
2017-08-23T03:00:47.189Z,9.70
2017-08-23T03:03:14.750Z,10.00
2017-08-23T03:05:42.362Z,11.30
2017-08-23T03:08:09.956Z,9.90
2017-08-23T03:10:37.550Z,10.40
2017-08-23T03:13:05.122Z,11.93
2017-08-23T03:15:32.701Z,11.03
2017-08-23T03:18:00.393Z,9.43
2017-08-23T03:20:27.991Z,9.83
2017-08-23T03:22:55.611Z,9.70
2017-08-23T03:25:23.192Z,9.90
2017-08-23T03:27:50.827Z,10.83
2017-08-23T03:30:18.418Z,10.40
2017-08-23T03:32:45.990Z,9.80
2017-08-23T03:35:13.576Z,10.23
2017-08-23T03:37:41.177Z,9.10
2017-08-23T03:40:08.803Z,10.23
2017-08-23T03:42:36.378Z,9.77
2017-08-23T03:45:03.969Z,9.87
2017-08-23T03:47:31.551Z,10.37
2017-08-23T03:49:59.133Z,10.53
2017-08-23T03:52:34.274Z,9.80
2017-08-23T03:55:01.916Z,9.53
2017-08-23T03:57:29.485Z,10.37
2017-08-23T03:59:57.086Z,9.87
2017-08-23T04:02:24.660Z,9.50
2017-08-23T04:04:52.239Z,10.20
2017-08-23T04:07:19.808Z,9.30
2017-08-23T04:09:47.386Z,10.43
2017-08-23T04:12:14.968Z,9.50
2017-08-23T04:14:42.548Z,9.70
2017-08-23T04:17:10.164Z,9.47
2017-08-23T04:19:37.731Z,8.63
2017-08-23T04:22:05.301Z,8.60
2017-08-23T04:24:32.870Z,9.63
2017-08-23T04:27:00.447Z,9.37
2017-08-23T04:29:28.042Z,9.63
2017-08-23T04:31:55.632Z,9.60
2017-08-23T04:34:23.239Z,9.73
2017-08-23T04:36:50.858Z,9.13
2017-08-23T04:39:18.422Z,9.90
2017-08-23T04:41:45.999Z,8.90
2017-08-23T04:44:13.595Z,8.83
2017-08-23T04:46:41.155Z,8.90
2017-08-23T04:49:08.743Z,9.53
2017-08-23T04:51:36.343Z,8.67
2017-08-23T04:54:04.059Z,9.17
2017-08-23T04:56:31.617Z,9.20
2017-08-23T04:58:59.207Z,8.93
2017-08-23T05:01:26.801Z,9.80
2017-08-23T05:03:54.401Z,8.40
2017-08-23T05:06:21.983Z,8.97
2017-08-23T05:08:49.557Z,8.77
2017-08-23T05:11:17.132Z,7.27
2017-08-23T05:13:44.727Z,7.97
2017-08-23T05:16:12.346Z,7.07
2017-08-23T05:18:39.908Z,7.10
2017-08-23T05:21:07.486Z,7.20
2017-08-23T05:23:35.062Z,7.70
2017-08-23T05:26:03.599Z,8.27
2017-08-23T05:28:31.205Z,7.07
2017-08-23T05:30:58.792Z,6.70
2017-08-23T05:33:26.368Z,6.83
2017-08-23T05:35:53.955Z,7.07
2017-08-23T05:38:21.554Z,6.10
2017-08-23T05:40:49.146Z,6.10
2017-08-23T05:43:16.737Z,5.80
2017-08-23T05:45:44.307Z,6.20
2017-08-23T05:48:11.882Z,6.30
2017-08-23T05:50:39.457Z,5.57
2017-08-23T05:53:07.101Z,5.30
2017-08-23T05:55:34.709Z,5.83
2017-08-23T05:58:02.607Z,5.60
2017-08-23T06:00:30.199Z,5.37
2017-08-23T06:02:57.770Z,4.87
2017-08-23T06:05:25.365Z,4.90
2017-08-23T06:07:52.948Z,4.57
2017-08-23T06:10:20.539Z,5.37
2017-08-23T06:12:48.114Z,6.20
2017-08-23T06:15:15.706Z,5.07
2017-08-23T06:17:43.262Z,4.60
2017-08-23T06:20:10.833Z,5.20
2017-08-23T06:22:38.417Z,5.10
2017-08-23T06:25:05.999Z,4.60
2017-08-23T06:27:33.604Z,4.53
2017-08-23T06:30:01.180Z,4.60
2017-08-23T06:32:28.756Z,4.83
2017-08-23T06:34:56.324Z,5.00
2017-08-23T06:37:23.906Z,4.50
2017-08-23T06:39:51.495Z,4.60
2017-08-23T06:42:19.116Z,4.23
2017-08-23T06:44:46.667Z,4.27
2017-08-23T06:47:14.321Z,5.30
2017-08-23T06:49:41.916Z,4.53
2017-08-23T06:52:09.547Z,4.33
2017-08-23T06:54:37.103Z,4.50
2017-08-23T06:57:04.683Z,4.50
2017-08-23T06:59:32.270Z,3.90
2017-08-23T07:01:59.855Z,4.37
2017-08-23T07:04:27.432Z,4.10
2017-08-23T07:06:54.987Z,4.77
2017-08-23T07:09:22.540Z,4.20
2017-08-23T07:11:50.096Z,4.47
2017-08-23T07:14:17.698Z,4.10
2017-08-23T07:16:45.271Z,3.90
2017-08-23T07:19:12.865Z,4.20
2017-08-23T07:21:40.582Z,4.10
2017-08-23T07:24:08.169Z,3.80
2017-08-23T07:26:35.735Z,3.70
2017-08-23T07:29:03.293Z,3.87
2017-08-23T07:31:30.946Z,4.00
2017-08-23T07:33:58.533Z,3.40
2017-08-23T07:36:26.151Z,3.67
2017-08-23T07:38:53.798Z,3.90
2017-08-23T07:41:21.403Z,3.97
2017-08-23T07:43:48.980Z,4.50
2017-08-23T07:46:16.579Z,4.47
2017-08-23T07:48:44.175Z,4.20
2017-08-23T07:51:11.745Z,4.43
2017-08-23T07:53:39.318Z,3.83
2017-08-23T07:56:06.966Z,3.97
2017-08-23T07:58:34.532Z,3.83
2017-08-23T08:01:02.099Z,3.83
2017-08-23T08:03:29.655Z,4.17
2017-08-23T08:05:57.548Z,3.57
2017-08-23T08:08:25.129Z,4.20
2017-08-23T08:10:52.785Z,4.00
2017-08-23T08:13:20.363Z,4.30
2017-08-23T08:15:47.916Z,3.70
2017-08-23T08:18:15.485Z,4.10
2017-08-23T08:20:43.078Z,3.80
2017-08-23T08:23:10.682Z,4.03
2017-08-23T08:25:38.462Z,3.10
2017-08-23T08:28:06.065Z,3.63
2017-08-23T08:30:33.628Z,3.30
2017-08-23T08:35:38.028Z,3.50
2017-08-23T08:38:05.674Z,3.70
2017-08-23T08:40:33.287Z,3.40
2017-08-23T08:43:00.853Z,3.10
2017-08-23T08:45:28.428Z,3.17
2017-08-23T08:47:56.006Z,3.53
2017-08-23T08:50:23.591Z,3.93
2017-08-23T08:52:51.195Z,3.20
2017-08-23T08:55:18.795Z,3.70
2017-08-23T08:57:46.360Z,3.33
2017-08-23T09:00:13.953Z,3.40
2017-08-23T09:02:41.515Z,2.80
2017-08-23T09:05:10.018Z,3.50
2017-08-23T09:07:37.623Z,3.40
2017-08-23T09:10:05.202Z,3.10
2017-08-23T09:12:32.784Z,2.70
2017-08-23T09:15:00.352Z,3.00
2017-08-23T09:17:28.015Z,3.60
2017-08-23T09:19:55.607Z,3.47
2017-08-23T09:22:23.183Z,3.73
2017-08-23T09:24:50.767Z,3.27
2017-08-23T09:27:18.396Z,3.20
2017-08-23T09:29:46.027Z,3.43
2017-08-23T09:32:13.611Z,3.20
2017-08-23T09:34:41.206Z,3.37
2017-08-23T09:37:08.766Z,3.57
2017-08-23T09:39:36.378Z,3.20
2017-08-23T09:42:03.942Z,3.40
2017-08-23T09:44:31.514Z,3.70
2017-08-23T09:46:59.106Z,3.10
2017-08-23T09:49:26.679Z,3.07
2017-08-23T09:51:54.303Z,2.83
2017-08-23T09:54:21.883Z,3.33
2017-08-23T09:56:49.474Z,2.97
2017-08-23T09:59:17.091Z,3.70
2017-08-23T10:01:44.646Z,3.30
2017-08-23T10:04:12.214Z,3.07
2017-08-23T10:06:39.823Z,3.43
2017-08-23T10:09:07.383Z,3.03
2017-08-23T10:11:35.120Z,3.50
2017-08-23T10:14:03.490Z,3.30
2017-08-23T10:16:31.085Z,3.27
2017-08-23T10:18:58.756Z,4.40
2017-08-23T10:21:26.348Z,3.27
2017-08-23T10:23:54.003Z,3.40
2017-08-23T10:26:21.683Z,3.40
2017-08-23T10:28:49.252Z,2.67
2017-08-23T10:31:16.828Z,3.63
2017-08-23T10:33:44.426Z,3.10
2017-08-23T10:36:12.006Z,2.80
2017-08-23T10:38:39.616Z,2.90
2017-08-23T10:41:07.165Z,3.20
2017-08-23T10:43:34.737Z,3.60
2017-08-23T10:46:02.319Z,3.23
2017-08-23T10:48:29.880Z,3.27
2017-08-23T10:50:57.467Z,2.60
2017-08-23T10:53:25.041Z,3.43
2017-08-23T10:55:53.478Z,3.53
2017-08-23T10:58:21.050Z,2.90
2017-08-23T11:00:48.621Z,3.77
2017-08-23T11:03:16.201Z,2.70
2017-08-23T11:05:43.787Z,2.80
2017-08-23T11:08:11.328Z,3.43
2017-08-23T11:10:38.902Z,3.30
2017-08-23T11:13:06.510Z,2.93
2017-08-23T11:15:34.252Z,3.23
2017-08-23T11:18:01.806Z,3.10
2017-08-23T11:20:29.426Z,3.03
2017-08-23T11:22:59.154Z,3.00
2017-08-23T11:25:26.844Z,3.10
2017-08-23T11:27:54.415Z,3.87
2017-08-23T11:30:22.181Z,3.47
2017-08-23T11:32:49.830Z,2.90
2017-08-23T11:35:17.430Z,3.37
2017-08-23T11:37:45.059Z,3.00
2017-08-23T11:40:12.758Z,3.73
2017-08-23T11:42:40.494Z,3.30
2017-08-23T11:45:08.092Z,3.40
2017-08-23T11:47:35.659Z,2.80
2017-08-23T11:50:03.269Z,3.30
2017-08-23T11:52:30.845Z,3.00
2017-08-23T11:54:58.422Z,3.60
2017-08-23T11:57:26.012Z,3.00
2017-08-23T11:59:53.582Z,3.00
2017-08-23T12:02:21.228Z,2.57
2017-08-23T12:04:48.799Z,2.80
2017-08-23T12:07:16.453Z,3.53
2017-08-23T12:09:44.061Z,3.40
2017-08-23T12:12:11.623Z,3.10
2017-08-23T12:14:39.260Z,2.43
2017-08-23T12:17:06.842Z,3.33
2017-08-23T12:19:34.433Z,3.03
2017-08-23T12:22:02.001Z,2.67
2017-08-23T12:24:29.807Z,3.00
2017-08-23T12:26:57.402Z,2.83
2017-08-23T12:29:24.983Z,3.30
2017-08-23T12:31:52.578Z,3.10
2017-08-23T12:34:20.143Z,2.83
2017-08-23T12:36:47.745Z,3.80
2017-08-23T12:39:15.334Z,2.70
2017-08-23T12:41:42.900Z,3.20
2017-08-23T12:44:10.476Z,3.27
2017-08-23T12:46:38.099Z,3.30
2017-08-23T12:49:05.693Z,3.90
2017-08-23T12:51:33.627Z,2.77
2017-08-23T12:54:01.214Z,4.03
2017-08-23T12:56:28.779Z,3.30
2017-08-23T12:58:56.383Z,3.47
2017-08-23T13:01:23.947Z,3.60
2017-08-23T13:03:51.551Z,3.07
2017-08-23T13:06:19.837Z,2.97
2017-08-23T13:08:47.512Z,2.73
2017-08-23T13:11:15.103Z,3.23
2017-08-23T13:13:42.681Z,3.20
2017-08-23T13:16:10.365Z,3.10
2017-08-23T13:18:38.085Z,2.83
2017-08-23T13:21:05.680Z,4.30
2017-08-23T13:23:33.278Z,3.03
2017-08-23T13:26:00.866Z,2.67
2017-08-23T13:28:28.451Z,3.17
2017-08-23T13:30:56.007Z,2.93
2017-08-23T13:33:23.597Z,3.20
2017-08-23T13:35:51.187Z,3.37
2017-08-23T13:38:18.751Z,3.10
2017-08-23T13:40:46.364Z,3.30
2017-08-23T13:43:13.961Z,3.13
2017-08-23T13:45:41.595Z,3.40
2017-08-23T13:48:09.169Z,3.30
2017-08-23T13:50:36.799Z,3.23
2017-08-23T13:53:04.892Z,2.97
2017-08-23T13:55:32.538Z,3.80
2017-08-23T13:58:00.124Z,4.20
2017-08-23T14:00:28.186Z,2.97
2017-08-23T14:02:55.758Z,3.33
2017-08-23T14:05:23.630Z,3.20
2017-08-23T14:07:52.768Z,3.03
2017-08-23T14:10:20.486Z,3.83
2017-08-23T14:12:48.133Z,4.27
2017-08-23T14:15:15.694Z,3.20
2017-08-23T14:17:43.286Z,3.50
2017-08-23T14:20:11.498Z,3.40
2017-08-23T14:22:39.044Z,3.50
2017-08-23T14:25:06.660Z,3.50
2017-08-23T14:27:34.242Z,3.50
2017-08-23T14:30:01.803Z,3.37
2017-08-23T14:32:29.387Z,3.33
2017-08-23T14:34:56.967Z,3.47
2017-08-23T14:37:24.541Z,2.83
2017-08-23T14:39:52.349Z,3.03
2017-08-23T14:42:20.400Z,3.40
2017-08-23T14:44:48.033Z,3.80
2017-08-23T14:47:15.597Z,3.47
2017-08-23T14:49:43.205Z,3.23
2017-08-23T14:52:10.783Z,3.57
2017-08-23T14:54:38.408Z,3.40
2017-08-23T14:57:05.995Z,3.37
2017-08-23T14:59:33.568Z,3.30
2017-08-23T15:02:01.166Z,2.90
2017-08-23T15:04:28.818Z,3.60
2017-08-23T15:06:56.422Z,3.20
2017-08-23T15:09:23.991Z,2.80
2017-08-23T15:11:51.578Z,3.23
2017-08-23T15:14:19.153Z,3.17
2017-08-23T15:16:46.740Z,3.37
2017-08-23T15:19:14.324Z,3.00
2017-08-23T15:21:41.923Z,3.43
2017-08-23T15:24:09.514Z,3.43
2017-08-23T15:26:37.041Z,3.80
2017-08-23T15:29:04.663Z,3.00
2017-08-23T15:31:32.247Z,3.63
2017-08-23T15:33:59.839Z,3.40
2017-08-23T15:36:27.426Z,5.67
2017-08-23T15:38:55.131Z,3.73
2017-08-23T15:41:22.890Z,4.47
2017-08-23T15:43:50.458Z,3.50
2017-08-23T15:46:18.184Z,4.67
2017-08-23T15:48:45.940Z,3.73
2017-08-23T15:51:24.837Z,3.60
2017-08-23T15:53:52.843Z,4.33
2017-08-23T15:56:20.630Z,4.07
2017-08-23T15:58:48.474Z,3.27
2017-08-23T16:01:17.022Z,3.43
2017-08-23T16:03:44.692Z,3.70
2017-08-23T16:06:12.356Z,4.20
2017-08-23T16:14:25.743Z,4.50
2017-08-23T16:16:53.445Z,4.10
2017-08-23T16:28:12.911Z,3.37
2017-08-23T16:30:40.650Z,3.23
2017-08-23T16:33:09.173Z,3.80
2017-08-23T16:35:37.034Z,3.93
2017-08-23T16:38:04.679Z,4.10
2017-08-23T16:40:32.233Z,4.93
2017-08-23T16:43:00.082Z,3.80
2017-08-23T16:45:27.801Z,4.10
2017-08-23T16:47:55.590Z,4.20
2017-08-23T16:50:23.204Z,6.03
2017-08-23T16:52:50.784Z,4.27
2017-08-23T16:55:18.613Z,3.87
2017-08-23T16:57:46.186Z,4.40
2017-08-23T17:00:13.910Z,4.33
2017-08-23T17:02:52.034Z,4.53
2017-08-23T17:05:19.649Z,3.73
2017-08-23T17:07:47.360Z,3.87
2017-08-23T17:10:15.023Z,4.57
2017-08-23T17:12:42.594Z,4.13
2017-08-23T17:15:10.228Z,4.60
2017-08-23T17:17:37.803Z,3.40
2017-08-23T17:20:05.386Z,4.00
2017-08-23T17:22:32.967Z,4.50
2017-08-23T17:25:00.551Z,4.00
2017-08-23T17:27:28.730Z,4.63
2017-08-23T17:29:56.318Z,4.20
2017-08-23T17:32:23.890Z,4.53
2017-08-23T17:34:51.483Z,4.47
2017-08-23T17:37:19.187Z,4.33
2017-08-23T17:39:46.748Z,4.80
2017-08-23T17:42:14.335Z,4.10
2017-08-23T17:44:41.914Z,4.37
2017-08-23T17:47:09.565Z,3.80
2017-08-23T17:49:37.114Z,4.53
2017-08-23T17:52:04.711Z,3.97
2017-08-23T17:54:32.271Z,4.20
2017-08-23T17:56:59.873Z,3.70
2017-08-23T17:59:27.494Z,4.80
2017-08-23T18:01:55.152Z,5.10
2017-08-23T18:04:22.892Z,4.07
2017-08-23T18:06:50.711Z,5.57
2017-08-23T18:09:18.279Z,4.47
2017-08-23T18:11:45.886Z,4.50
2017-08-23T18:14:13.489Z,4.10
2017-08-23T18:16:41.030Z,4.57
2017-08-23T18:19:08.614Z,4.50
2017-08-23T18:21:36.266Z,5.03
2017-08-23T18:24:04.049Z,4.97
2017-08-23T18:26:31.630Z,4.60
2017-08-23T18:28:59.291Z,5.20
2017-08-23T18:31:27.778Z,4.93
2017-08-23T18:33:55.439Z,6.20
2017-08-23T18:36:23.533Z,5.43
2017-08-23T18:38:52.280Z,4.17
2017-08-23T18:41:20.606Z,5.10
2017-08-23T18:43:48.501Z,4.93
2017-08-23T18:46:16.103Z,5.30
2017-08-23T18:48:43.907Z,5.17
2017-08-23T18:51:11.480Z,4.83
2017-08-23T18:53:39.057Z,4.70
2017-08-23T18:56:06.661Z,5.87
2017-08-23T18:58:35.081Z,5.10
2017-08-23T19:01:02.670Z,5.10
2017-08-23T19:03:30.234Z,6.10
2017-08-23T19:05:57.848Z,4.93
2017-08-23T19:08:25.406Z,5.57
2017-08-23T19:10:53.011Z,4.50
2017-08-23T19:13:20.594Z,5.10
2017-08-23T19:15:48.208Z,5.70
2017-08-23T19:18:15.782Z,4.83
2017-08-23T19:20:43.423Z,5.60
2017-08-23T19:23:11.822Z,5.00
2017-08-23T19:25:39.451Z,4.50
2017-08-23T19:28:07.073Z,4.20
2017-08-23T19:30:34.663Z,4.40
2017-08-23T19:33:02.428Z,5.07
2017-08-23T19:35:30.317Z,5.40
2017-08-23T19:37:58.231Z,4.77
2017-08-23T19:40:25.905Z,5.50
2017-08-23T19:42:53.579Z,5.20
2017-08-23T19:45:21.677Z,5.20
2017-08-23T19:47:49.630Z,4.87
2017-08-23T19:50:17.299Z,4.60
2017-08-23T19:52:45.160Z,5.33
2017-08-23T19:55:12.954Z,4.87
2017-08-23T19:57:40.533Z,5.27
2017-08-23T20:00:08.143Z,5.20
2017-08-23T20:02:35.735Z,4.57
2017-08-23T20:05:03.324Z,5.23
2017-08-23T20:07:30.934Z,6.60
2017-08-23T20:09:58.514Z,5.50
2017-08-23T20:12:26.087Z,5.40
2017-08-23T20:14:53.667Z,5.00
2017-08-23T20:17:21.455Z,6.33
2017-08-23T20:19:49.409Z,5.27
2017-08-23T20:22:17.030Z,5.50
2017-08-23T20:24:44.686Z,4.50
2017-08-23T20:27:12.414Z,4.70
2017-08-23T20:29:40.051Z,6.40
2017-08-23T20:32:07.936Z,5.10
2017-08-23T20:34:35.859Z,5.50
2017-08-23T20:37:03.560Z,5.17
2017-08-23T20:39:31.290Z,5.83
2017-08-23T20:41:58.875Z,5.50
2017-08-23T20:44:26.494Z,4.37
2017-08-23T20:46:54.158Z,5.90
2017-08-23T20:49:21.851Z,4.73
2017-08-23T20:51:49.443Z,5.20
2017-08-23T20:54:17.051Z,5.40
2017-08-23T20:56:44.642Z,5.03
2017-08-23T20:59:12.256Z,5.53
2017-08-23T21:01:39.842Z,5.20
2017-08-23T21:04:07.396Z,5.67
2017-08-23T21:06:35.102Z,5.30
2017-08-23T21:09:02.636Z,6.03
2017-08-23T21:11:30.288Z,5.17
2017-08-23T21:13:57.988Z,5.93
2017-08-23T21:16:25.635Z,5.73
2017-08-23T21:18:53.398Z,5.37
2017-08-23T21:21:21.121Z,5.10
2017-08-23T21:23:48.834Z,5.20
2017-08-23T21:26:16.528Z,5.80
2017-08-23T21:28:44.230Z,5.87
2017-08-23T21:31:11.898Z,6.43
2017-08-23T21:33:39.556Z,6.17
2017-08-23T21:36:07.153Z,5.43
2017-08-23T21:38:35.069Z,6.10
2017-08-23T21:41:02.723Z,5.50
2017-08-23T21:43:30.304Z,5.60
2017-08-23T21:45:58.088Z,5.87
2017-08-23T21:48:25.798Z,5.27
2017-08-23T21:50:53.859Z,6.33
2017-08-23T21:53:21.667Z,5.60
2017-08-23T21:55:49.455Z,5.43
2017-08-23T21:58:17.232Z,6.20
2017-08-23T22:00:44.920Z,6.13
2017-08-23T22:03:12.604Z,5.53
2017-08-23T22:08:13.332Z,6.43
2017-08-23T22:10:41.044Z,5.60
2017-08-23T22:13:08.630Z,5.80
2017-08-23T22:15:36.389Z,5.97
2017-08-23T22:18:03.990Z,5.80
2017-08-23T22:20:31.683Z,5.97
2017-08-23T22:22:59.353Z,6.53
2017-08-23T22:25:27.021Z,6.57
2017-08-23T22:27:54.605Z,6.40
2017-08-23T22:30:22.280Z,6.30
2017-08-23T22:32:50.038Z,6.97
2017-08-23T22:35:17.688Z,6.50
2017-08-23T22:37:45.424Z,7.37
2017-08-23T22:40:13.317Z,6.90
2017-08-23T22:42:41.276Z,6.20
2017-08-23T22:45:08.874Z,6.73
2017-08-23T22:47:36.503Z,5.83
2017-08-23T22:50:04.355Z,6.27
2017-08-23T22:52:31.934Z,5.90
2017-08-23T22:54:59.506Z,7.27
2017-08-23T22:57:27.101Z,6.80
2017-08-23T22:59:54.753Z,7.17
2017-08-23T23:02:22.318Z,6.70
2017-08-23T23:04:49.902Z,6.73
2017-08-23T23:07:17.522Z,6.70
2017-08-23T23:09:45.121Z,8.10
2017-08-23T23:12:12.686Z,8.27
2017-08-23T23:14:40.291Z,8.93
2017-08-23T23:17:07.858Z,6.73
2017-08-23T23:19:35.428Z,7.97
2017-08-23T23:22:03.032Z,7.17
2017-08-23T23:24:30.946Z,8.10
2017-08-23T23:26:58.526Z,7.87
2017-08-23T23:29:26.114Z,8.00
2017-08-23T23:31:53.700Z,6.70
2017-08-23T23:34:21.301Z,7.20
2017-08-23T23:36:48.834Z,7.70
2017-08-23T23:39:16.544Z,7.73
2017-08-23T23:41:44.118Z,7.27
2017-08-23T23:44:11.701Z,7.20
2017-08-23T23:46:40.142Z,7.50
2017-08-23T23:49:07.705Z,7.60
2017-08-23T23:51:35.289Z,8.60
2017-08-23T23:54:02.844Z,8.83
2017-08-23T23:56:30.403Z,10.80
2017-08-23T23:58:58.007Z,10.60
